createdAt,value
2023-03-17T00:01:54.824Z,2.59
2023-03-17T00:04:26.882Z,2.57
2023-03-17T00:06:55.133Z,2.63
2023-03-17T00:09:22.710Z,2.56
2023-03-17T00:11:50.434Z,2.52
2023-03-17T00:14:18.258Z,2.44
2023-03-17T00:16:50.060Z,2.36
2023-03-17T00:19:21.826Z,2.34
2023-03-17T00:21:49.856Z,2.26
2023-03-17T00:24:17.275Z,2.27
2023-03-17T00:26:44.129Z,2.23
2023-03-17T00:29:10.923Z,2.12
2023-03-17T00:31:38.207Z,2.19
2023-03-17T00:34:05.876Z,2.26
2023-03-17T00:36:33.744Z,2.29
2023-03-17T00:39:03.833Z,2.29
2023-03-17T00:41:30.607Z,2.29
2023-03-17T00:43:57.684Z,2.25
2023-03-17T00:46:36.112Z,2.25
2023-03-17T00:49:18.737Z,2.28
2023-03-17T00:51:46.377Z,2.22
2023-03-17T00:54:15.580Z,2.14
2023-03-17T00:56:44.305Z,2.17
2023-03-17T00:59:29.802Z,2.11
2023-03-17T01:01:57.044Z,2.00
2023-03-17T01:04:24.230Z,1.93
2023-03-17T01:06:52.293Z,1.89
2023-03-17T01:09:20.439Z,1.81
2023-03-17T01:11:48.250Z,1.73
2023-03-17T01:14:15.323Z,1.80
2023-03-17T01:16:42.170Z,1.68
2023-03-17T01:19:11.998Z,1.75
2023-03-17T01:21:38.899Z,1.71
2023-03-17T01:24:06.094Z,1.71
2023-03-17T01:26:32.827Z,1.73
2023-03-17T01:28:59.910Z,1.73
2023-03-17T01:31:26.668Z,1.69
2023-03-17T01:33:54.041Z,1.66
2023-03-17T01:36:21.917Z,1.60
2023-03-17T01:38:50.805Z,1.55
2023-03-17T01:41:20.950Z,1.62
2023-03-17T01:43:47.890Z,1.62
2023-03-17T01:46:30.218Z,1.63
2023-03-17T01:48:59.732Z,1.57
2023-03-17T01:51:46.432Z,1.50
2023-03-17T01:54:22.436Z,1.49
2023-03-17T01:56:52.277Z,1.44
2023-03-17T01:59:23.967Z,1.44
2023-03-17T02:01:54.655Z,1.47
2023-03-17T02:04:22.032Z,1.46
2023-03-17T02:06:57.856Z,1.42
2023-03-17T02:09:25.566Z,1.35
2023-03-17T02:11:52.253Z,1.34
2023-03-17T02:14:19.020Z,1.36
2023-03-17T02:16:46.063Z,1.44
2023-03-17T02:19:15.639Z,1.47
2023-03-17T02:21:45.290Z,1.60
2023-03-17T02:24:23.726Z,1.65
2023-03-17T02:26:54.026Z,1.55
2023-03-17T02:29:23.187Z,1.58
2023-03-17T02:31:50.634Z,1.66
2023-03-17T02:34:17.384Z,1.74
2023-03-17T02:36:44.380Z,1.83
2023-03-17T02:39:11.185Z,1.85
2023-03-17T02:41:38.053Z,1.73
2023-03-17T02:44:04.929Z,1.82
2023-03-17T02:46:31.702Z,1.82
2023-03-17T02:49:00.727Z,1.85
2023-03-17T02:51:28.213Z,1.82
2023-03-17T02:53:54.879Z,1.70
2023-03-17T02:56:21.554Z,1.73
2023-03-17T02:58:48.268Z,1.73
2023-03-17T03:01:15.696Z,1.81
2023-03-17T03:03:42.394Z,1.82
2023-03-17T03:06:08.997Z,1.85
2023-03-17T03:08:36.498Z,1.84
2023-03-17T03:11:04.068Z,1.89
2023-03-17T03:13:30.786Z,1.88
2023-03-17T03:15:57.568Z,1.81
2023-03-17T03:18:24.550Z,1.71
2023-03-17T03:20:51.509Z,1.73
2023-03-17T03:23:18.752Z,1.73
2023-03-17T03:25:45.828Z,1.75
2023-03-17T03:28:12.548Z,1.80
2023-03-17T03:30:39.473Z,1.75
2023-03-17T03:33:06.669Z,1.67
2023-03-17T03:35:34.495Z,1.62
2023-03-17T03:38:01.596Z,1.55
2023-03-17T03:40:28.593Z,1.60
2023-03-17T03:42:55.445Z,1.60
2023-03-17T03:45:22.084Z,1.62
2023-03-17T03:47:48.785Z,1.59
2023-03-17T03:50:15.630Z,1.64
2023-03-17T03:52:42.289Z,1.58
2023-03-17T03:55:09.720Z,1.55
2023-03-17T03:57:36.492Z,1.53
2023-03-17T04:00:05.152Z,1.52
2023-03-17T04:02:38.767Z,1.56
2023-03-17T04:05:07.275Z,1.53
2023-03-17T04:07:34.070Z,1.41
2023-03-17T04:10:00.814Z,1.45
2023-03-17T04:12:27.710Z,1.45
2023-03-17T04:14:54.395Z,1.54
2023-03-17T04:17:21.051Z,1.47
2023-03-17T04:19:47.771Z,1.40
2023-03-17T04:22:14.423Z,1.32
2023-03-17T04:24:41.114Z,1.31
2023-03-17T04:27:08.080Z,1.26
2023-03-17T04:29:35.317Z,1.36
2023-03-17T04:32:03.733Z,1.35
2023-03-17T04:34:30.752Z,1.37
2023-03-17T04:36:57.522Z,1.20
2023-03-17T04:39:24.229Z,1.26
2023-03-17T04:41:51.107Z,1.18
2023-03-17T04:44:17.761Z,1.23
2023-03-17T04:46:44.436Z,1.17
2023-03-17T04:49:11.103Z,1.19
2023-03-17T04:51:37.751Z,1.18
2023-03-17T04:54:05.523Z,1.20
2023-03-17T04:56:32.268Z,1.25
2023-03-17T04:58:59.184Z,1.21
2023-03-17T05:01:26.423Z,1.18
2023-03-17T05:03:53.564Z,1.21
2023-03-17T05:06:20.338Z,1.19
2023-03-17T05:08:47.021Z,1.23
2023-03-17T05:11:14.293Z,1.30
2023-03-17T05:13:41.080Z,1.30
2023-03-17T05:16:09.301Z,1.27
2023-03-17T05:18:37.173Z,1.28
2023-03-17T05:21:06.303Z,1.27
2023-03-17T05:23:33.791Z,1.24
2023-03-17T05:26:00.701Z,1.21
2023-03-17T05:28:27.718Z,1.14
2023-03-17T05:30:54.991Z,1.14
2023-03-17T05:33:21.900Z,1.10
2023-03-17T05:35:48.762Z,1.17
2023-03-17T05:38:18.879Z,1.18
2023-03-17T05:40:45.743Z,1.14
2023-03-17T05:43:12.525Z,1.09
2023-03-17T05:45:39.303Z,1.09
2023-03-17T05:48:06.324Z,1.04
2023-03-17T05:50:33.458Z,1.01
2023-03-17T05:53:00.883Z,1.00
2023-03-17T05:55:27.631Z,0.97
2023-03-17T05:57:54.354Z,0.97
2023-03-17T06:00:21.747Z,0.96
2023-03-17T06:02:48.689Z,1.00
2023-03-17T06:05:15.673Z,1.04
2023-03-17T06:07:53.001Z,0.95
2023-03-17T06:10:23.796Z,1.05
2023-03-17T06:12:50.526Z,1.03
2023-03-17T06:15:17.478Z,1.00
2023-03-17T06:17:44.524Z,1.03
2023-03-17T06:20:11.964Z,1.10
2023-03-17T06:22:42.354Z,1.12
2023-03-17T06:25:15.706Z,1.11
2023-03-17T06:27:42.713Z,1.27
2023-03-17T06:30:10.155Z,1.31
2023-03-17T06:32:36.928Z,1.33
2023-03-17T06:35:05.358Z,1.54
2023-03-17T06:37:32.040Z,1.73
2023-03-17T06:40:00.885Z,2.22
2023-03-17T06:42:28.190Z,2.66
2023-03-17T06:44:55.673Z,2.96
2023-03-17T06:47:24.803Z,3.19
2023-03-17T06:49:53.562Z,3.26
2023-03-17T06:52:20.320Z,3.34
2023-03-17T06:54:47.056Z,3.22
2023-03-17T06:57:13.676Z,2.97
2023-03-17T06:59:40.464Z,2.89
2023-03-17T07:02:07.324Z,2.96
2023-03-17T07:04:35.334Z,2.90
2023-03-17T07:07:03.203Z,2.69
2023-03-17T07:09:29.817Z,2.52
2023-03-17T07:11:56.487Z,2.72
2023-03-17T07:14:23.206Z,2.72
2023-03-17T07:16:50.233Z,3.00
2023-03-17T07:19:17.067Z,3.20
2023-03-17T07:21:45.973Z,3.43
2023-03-17T07:24:13.513Z,3.77
2023-03-17T07:26:40.175Z,3.97
2023-03-17T07:29:08.335Z,4.28
2023-03-17T07:31:35.266Z,4.50
2023-03-17T07:34:02.139Z,4.67
2023-03-17T07:36:28.746Z,4.67
2023-03-17T07:38:55.524Z,4.40
2023-03-17T07:41:22.670Z,4.34
2023-03-17T07:43:49.343Z,4.53
2023-03-17T07:46:16.724Z,4.76
2023-03-17T07:48:44.067Z,5.03
2023-03-17T07:51:16.402Z,5.24
2023-03-17T07:53:43.165Z,5.13
2023-03-17T07:56:09.875Z,4.94
2023-03-17T07:58:36.899Z,4.94
2023-03-17T08:01:05.044Z,5.04
2023-03-17T08:03:31.846Z,5.18
2023-03-17T08:05:59.461Z,5.08
2023-03-17T08:08:28.584Z,5.15
2023-03-17T08:11:03.754Z,5.26
2023-03-17T08:13:34.057Z,5.15
2023-03-17T08:16:01.665Z,5.01
2023-03-17T08:18:28.437Z,4.91
2023-03-17T08:20:55.394Z,5.13
2023-03-17T08:23:22.606Z,5.20
2023-03-17T08:25:49.384Z,5.19
2023-03-17T08:28:16.526Z,5.45
2023-03-17T08:30:44.789Z,5.52
2023-03-17T08:33:11.614Z,5.60
2023-03-17T08:35:41.633Z,5.78
2023-03-17T08:38:09.017Z,5.71
2023-03-17T08:40:36.674Z,5.98
2023-03-17T08:43:03.407Z,5.97
2023-03-17T08:45:30.509Z,5.96
2023-03-17T08:47:57.784Z,6.08
2023-03-17T08:50:25.286Z,6.26
2023-03-17T08:52:52.883Z,6.29
2023-03-17T08:55:20.089Z,6.42
2023-03-17T08:57:46.941Z,6.38
2023-03-17T09:00:20.340Z,6.28
2023-03-17T09:02:48.354Z,6.22
2023-03-17T09:05:16.643Z,6.35
2023-03-17T09:07:43.768Z,6.61
2023-03-17T09:10:11.794Z,7.02
2023-03-17T09:12:38.818Z,7.56
2023-03-17T09:15:07.698Z,7.75
2023-03-17T09:17:34.782Z,7.83
2023-03-17T09:20:01.491Z,7.97
2023-03-17T09:22:28.141Z,8.27
2023-03-17T09:24:54.806Z,8.56
2023-03-17T09:27:21.463Z,8.69
2023-03-17T09:29:48.097Z,8.83
2023-03-17T09:32:15.887Z,8.87
2023-03-17T09:34:42.993Z,8.94
2023-03-17T09:37:10.260Z,8.93
2023-03-17T09:39:36.953Z,9.14
2023-03-17T09:42:37.174Z,9.14
2023-03-17T09:45:16.301Z,9.08
2023-03-17T09:48:00.607Z,9.23
2023-03-17T09:50:33.354Z,9.17
2023-03-17T09:53:03.828Z,9.49
2023-03-17T09:55:34.230Z,9.69
2023-03-17T09:58:01.116Z,10.18
2023-03-17T10:00:29.855Z,10.27
2023-03-17T10:02:58.230Z,10.47
2023-03-17T10:05:28.122Z,10.53
2023-03-17T10:08:31.345Z,10.58
2023-03-17T10:11:09.476Z,10.73
2023-03-17T10:13:55.828Z,10.78
2023-03-17T10:16:34.520Z,10.83
2023-03-17T10:19:46.104Z,11.20
2023-03-17T10:22:31.151Z,11.53
2023-03-17T10:25:04.324Z,11.44
2023-03-17T10:27:36.322Z,11.41
2023-03-17T10:30:03.932Z,11.52
2023-03-17T10:32:34.137Z,11.78
2023-03-17T10:35:01.397Z,11.85
2023-03-17T10:37:29.686Z,11.90
2023-03-17T10:39:57.462Z,11.94
2023-03-17T10:42:26.739Z,11.87
2023-03-17T10:44:57.802Z,12.10
2023-03-17T10:47:34.607Z,12.22
2023-03-17T10:50:20.408Z,12.22
2023-03-17T10:52:49.174Z,12.45
2023-03-17T10:55:20.446Z,12.70
2023-03-17T10:57:55.297Z,12.58
2023-03-17T11:00:23.203Z,12.80
2023-03-17T11:02:58.544Z,12.99
2023-03-17T11:05:29.805Z,13.17
2023-03-17T11:08:18.094Z,13.59
2023-03-17T11:10:44.932Z,13.55
2023-03-17T11:13:17.167Z,13.41
2023-03-17T11:15:52.820Z,13.38
2023-03-17T11:18:33.418Z,13.41
2023-03-17T11:21:11.152Z,13.47
2023-03-17T11:23:58.668Z,13.56
2023-03-17T11:27:06.952Z,13.42
2023-03-17T11:29:42.218Z,13.35
2023-03-17T11:32:28.780Z,13.53
2023-03-17T11:35:14.201Z,13.74
2023-03-17T11:38:18.903Z,13.89
2023-03-17T11:41:04.919Z,13.46
2023-03-17T11:43:45.397Z,13.41
2023-03-17T11:46:24.117Z,13.67
2023-03-17T11:49:18.859Z,13.92
2023-03-17T11:52:05.585Z,14.12
2023-03-17T11:55:04.445Z,14.35
2023-03-17T11:57:58.411Z,14.14
2023-03-17T12:00:33.816Z,14.08
2023-03-17T12:03:00.947Z,14.08
2023-03-17T12:05:30.127Z,14.00
2023-03-17T12:08:06.185Z,14.19
2023-03-17T12:10:41.261Z,14.35
2023-03-17T12:13:23.685Z,14.28
2023-03-17T12:15:55.940Z,14.15
2023-03-17T12:18:43.142Z,14.47
2023-03-17T12:21:20.745Z,14.73
2023-03-17T12:23:49.505Z,14.80
2023-03-17T12:26:21.204Z,14.89
2023-03-17T12:29:04.111Z,14.74
2023-03-17T12:31:37.813Z,14.63
2023-03-17T12:34:26.019Z,14.67
2023-03-17T12:36:53.860Z,14.66
2023-03-17T12:39:28.188Z,14.62
2023-03-17T12:42:25.273Z,14.72
2023-03-17T12:45:22.846Z,14.56
2023-03-17T12:48:04.716Z,14.37
2023-03-17T12:50:40.862Z,14.22
2023-03-17T12:53:22.819Z,14.13
2023-03-17T12:55:52.575Z,14.05
2023-03-17T12:58:28.309Z,14.02
2023-03-17T13:01:17.441Z,14.01
2023-03-17T13:04:05.128Z,14.18
2023-03-17T13:06:39.471Z,14.01
2023-03-17T13:09:30.294Z,14.52
2023-03-17T13:11:59.741Z,14.89
2023-03-17T13:14:27.146Z,14.85
2023-03-17T13:17:16.871Z,14.69
2023-03-17T13:20:07.893Z,14.64
2023-03-17T13:22:39.816Z,14.69
2023-03-17T13:25:25.242Z,14.52
2023-03-17T13:27:51.888Z,14.49
2023-03-17T13:30:27.643Z,14.62
2023-03-17T13:33:19.806Z,14.57
2023-03-17T13:35:46.696Z,14.49
2023-03-17T13:38:33.034Z,14.58
2023-03-17T13:41:24.968Z,14.69
2023-03-17T13:44:29.285Z,14.67
2023-03-17T13:47:15.962Z,14.53
2023-03-17T13:49:50.709Z,14.30
2023-03-17T13:52:27.471Z,13.98
2023-03-17T13:55:26.359Z,14.05
2023-03-17T13:58:22.511Z,14.12
2023-03-17T14:00:57.908Z,14.24
2023-03-17T14:03:30.502Z,14.32
2023-03-17T14:05:58.799Z,14.34
2023-03-17T14:08:52.059Z,14.48
2023-03-17T14:11:33.025Z,14.47
2023-03-17T14:14:32.243Z,14.44
2023-03-17T14:17:04.121Z,14.43
2023-03-17T14:19:31.191Z,14.39
2023-03-17T14:22:19.950Z,14.41
2023-03-17T14:24:51.765Z,14.30
2023-03-17T14:27:18.838Z,14.44
2023-03-17T14:29:46.071Z,14.52
2023-03-17T14:32:15.946Z,14.58
2023-03-17T14:34:44.707Z,14.53
2023-03-17T14:37:12.554Z,14.28
2023-03-17T14:39:48.723Z,14.33
2023-03-17T14:42:19.674Z,14.24
2023-03-17T14:44:46.511Z,14.26
2023-03-17T14:47:20.489Z,14.24
2023-03-17T14:49:47.975Z,14.34
2023-03-17T14:52:20.587Z,14.48
2023-03-17T14:54:52.822Z,14.49
2023-03-17T14:57:32.436Z,14.36
2023-03-17T15:00:16.247Z,14.30
2023-03-17T15:02:58.542Z,14.20
2023-03-17T15:05:30.743Z,14.11
2023-03-17T15:07:57.582Z,13.95
2023-03-17T15:10:31.185Z,14.08
2023-03-17T15:13:02.389Z,14.12
2023-03-17T15:15:33.058Z,14.03
2023-03-17T15:18:04.967Z,13.91
2023-03-17T15:20:35.339Z,13.94
2023-03-17T15:23:15.643Z,13.87
2023-03-17T15:25:44.722Z,13.84
2023-03-17T15:28:18.297Z,13.88
2023-03-17T15:30:48.508Z,13.85
2023-03-17T15:33:36.296Z,13.78
2023-03-17T15:36:03.612Z,13.74
2023-03-17T15:38:30.426Z,13.72
2023-03-17T15:40:57.419Z,13.73
2023-03-17T15:43:24.093Z,13.64
2023-03-17T15:46:01.393Z,13.65
2023-03-17T15:48:31.437Z,13.62
2023-03-17T15:51:00.139Z,13.57
2023-03-17T15:53:27.498Z,13.55
2023-03-17T15:55:54.269Z,13.48
2023-03-17T15:58:21.131Z,13.45
2023-03-17T16:00:52.623Z,13.44
2023-03-17T16:03:29.221Z,13.38
2023-03-17T16:05:56.137Z,13.37
2023-03-17T16:08:23.239Z,13.38
2023-03-17T16:10:49.954Z,13.28
2023-03-17T16:13:16.629Z,13.24
2023-03-17T16:15:50.726Z,13.20
2023-03-17T16:18:19.339Z,13.15
2023-03-17T16:20:54.480Z,13.10
2023-03-17T16:23:31.545Z,13.04
2023-03-17T16:26:11.861Z,13.02
2023-03-17T16:28:41.687Z,13.01
2023-03-17T16:31:24.924Z,12.93
2023-03-17T16:33:53.146Z,12.88
2023-03-17T16:36:21.338Z,12.87
2023-03-17T16:38:49.200Z,12.81
2023-03-17T16:41:19.298Z,12.74
2023-03-17T16:43:51.127Z,12.75
2023-03-17T16:46:19.713Z,12.70
2023-03-17T16:48:48.350Z,12.65
2023-03-17T16:51:15.364Z,12.68
2023-03-17T16:53:42.056Z,12.65
2023-03-17T16:56:18.500Z,12.62
2023-03-17T16:58:46.662Z,12.58
2023-03-17T17:01:26.070Z,12.57
2023-03-17T17:03:53.393Z,12.51
2023-03-17T17:06:22.321Z,12.46
2023-03-17T17:08:50.265Z,12.40
2023-03-17T17:11:18.332Z,12.31
2023-03-17T17:13:46.994Z,12.13
2023-03-17T17:16:22.267Z,12.15
2023-03-17T17:18:49.335Z,12.17
2023-03-17T17:21:16.682Z,12.11
2023-03-17T17:23:43.402Z,12.03
2023-03-17T17:26:10.363Z,11.97
2023-03-17T17:28:39.444Z,11.94
2023-03-17T17:31:08.465Z,11.91
2023-03-17T17:33:36.380Z,11.81
2023-03-17T17:36:05.891Z,11.76
2023-03-17T17:38:32.702Z,11.70
2023-03-17T17:41:03.324Z,11.70
2023-03-17T17:43:29.992Z,11.59
2023-03-17T17:45:56.625Z,11.58
2023-03-17T17:48:26.291Z,11.57
2023-03-17T17:50:54.402Z,11.48
2023-03-17T17:53:21.437Z,11.48
2023-03-17T17:55:49.713Z,11.43
2023-03-17T17:58:19.986Z,11.41
2023-03-17T18:00:46.990Z,11.41
2023-03-17T18:03:13.770Z,11.36
2023-03-17T18:05:40.463Z,11.29
2023-03-17T18:08:07.471Z,11.28
2023-03-17T18:10:34.896Z,11.25
2023-03-17T18:13:01.740Z,11.23
2023-03-17T18:15:29.021Z,11.30
2023-03-17T18:17:56.244Z,11.27
2023-03-17T18:20:24.061Z,11.12
2023-03-17T18:22:51.622Z,11.22
2023-03-17T18:25:19.406Z,11.18
2023-03-17T18:27:47.320Z,11.18
2023-03-17T18:30:21.223Z,11.13
2023-03-17T18:32:49.854Z,11.06
2023-03-17T18:35:19.464Z,11.01
2023-03-17T18:37:46.480Z,10.96
2023-03-17T18:40:17.292Z,10.93
2023-03-17T18:42:46.109Z,10.87
2023-03-17T18:45:13.602Z,10.90
2023-03-17T18:47:41.905Z,10.87
2023-03-17T18:50:11.189Z,10.85
2023-03-17T18:52:41.119Z,10.87
2023-03-17T18:55:09.702Z,10.77
2023-03-17T18:57:36.782Z,10.46
2023-03-17T19:00:05.211Z,10.23
2023-03-17T19:02:31.858Z,10.10
2023-03-17T19:04:58.571Z,10.04
2023-03-17T19:07:25.322Z,9.91
2023-03-17T19:09:52.045Z,9.84
2023-03-17T19:12:18.826Z,9.70
2023-03-17T19:14:45.567Z,9.60
2023-03-17T19:17:12.201Z,9.56
2023-03-17T19:19:40.638Z,9.53
2023-03-17T19:22:07.727Z,9.50
2023-03-17T19:24:36.108Z,9.40
2023-03-17T19:27:02.754Z,9.33
2023-03-17T19:29:29.413Z,9.25
2023-03-17T19:31:56.027Z,9.22
2023-03-17T19:34:23.345Z,9.18
2023-03-17T19:36:51.260Z,9.13
2023-03-17T19:39:18.201Z,9.06
2023-03-17T19:41:44.981Z,9.13
2023-03-17T19:44:11.688Z,9.09
2023-03-17T19:46:38.522Z,9.00
2023-03-17T19:49:05.504Z,8.94
2023-03-17T19:51:33.173Z,8.81
2023-03-17T19:54:00.243Z,8.84
2023-03-17T19:56:27.950Z,8.79
2023-03-17T19:58:55.018Z,8.80
2023-03-17T20:01:22.824Z,8.77
2023-03-17T20:03:49.923Z,8.71
2023-03-17T20:06:16.859Z,8.68
2023-03-17T20:08:44.316Z,8.63
2023-03-17T20:11:12.393Z,8.49
2023-03-17T20:13:39.730Z,8.31
2023-03-17T20:16:07.973Z,8.34
2023-03-17T20:18:35.957Z,8.36
2023-03-17T20:21:05.742Z,8.36
2023-03-17T20:23:33.444Z,8.42
2023-03-17T20:26:00.137Z,8.40
2023-03-17T20:28:29.507Z,8.42
2023-03-17T20:31:00.378Z,8.45
2023-03-17T20:33:27.877Z,8.50
2023-03-17T20:35:54.637Z,8.60
2023-03-17T20:38:21.413Z,8.59
2023-03-17T20:40:48.096Z,8.53
2023-03-17T20:43:15.044Z,8.46
2023-03-17T20:45:41.716Z,8.37
2023-03-17T20:48:10.739Z,8.20
2023-03-17T20:50:38.880Z,8.22
2023-03-17T20:53:05.868Z,8.18
2023-03-17T20:55:32.548Z,8.18
2023-03-17T20:57:59.702Z,8.14
2023-03-17T21:00:26.594Z,7.95
2023-03-17T21:02:53.370Z,7.91
2023-03-17T21:05:25.315Z,7.96
2023-03-17T21:07:52.726Z,7.93
2023-03-17T21:10:20.629Z,7.86
2023-03-17T21:12:48.118Z,7.79
2023-03-17T21:15:15.661Z,7.70
2023-03-17T21:17:43.063Z,7.56
2023-03-17T21:20:12.352Z,7.36
2023-03-17T21:22:40.210Z,7.41
2023-03-17T21:25:08.991Z,7.45
2023-03-17T21:27:37.791Z,7.45
2023-03-17T21:30:12.068Z,7.37
2023-03-17T21:32:40.369Z,7.41
2023-03-17T21:35:08.136Z,7.39
2023-03-17T21:37:35.090Z,7.38
2023-03-17T21:40:02.131Z,7.36
2023-03-17T21:42:29.128Z,7.31
2023-03-17T21:44:55.904Z,7.25
2023-03-17T21:47:22.588Z,7.23
2023-03-17T21:49:49.271Z,7.30
2023-03-17T21:52:16.090Z,7.19
2023-03-17T21:54:42.869Z,7.27
2023-03-17T21:57:11.830Z,7.29
2023-03-17T21:59:38.710Z,7.25
2023-03-17T22:02:05.985Z,7.28
2023-03-17T22:04:32.646Z,7.22
2023-03-17T22:06:59.266Z,7.23
2023-03-17T22:09:26.116Z,7.26
2023-03-17T22:11:52.872Z,7.29
2023-03-17T22:14:20.739Z,7.34
2023-03-17T22:16:50.891Z,7.31
2023-03-17T22:19:20.588Z,7.32
2023-03-17T22:21:48.080Z,7.45
2023-03-17T22:24:14.778Z,7.47
2023-03-17T22:26:42.145Z,7.50
2023-03-17T22:29:08.842Z,7.52
2023-03-17T22:31:36.559Z,7.56
2023-03-17T22:34:04.452Z,7.56
2023-03-17T22:36:31.556Z,7.60
2023-03-17T22:38:59.712Z,7.51
2023-03-17T22:41:29.311Z,7.63
2023-03-17T22:43:57.765Z,7.58
2023-03-17T22:46:25.381Z,7.58
2023-03-17T22:48:52.561Z,7.50
2023-03-17T22:51:23.031Z,7.45
2023-03-17T22:53:51.034Z,7.32
2023-03-17T22:56:18.387Z,7.47
2023-03-17T22:58:46.216Z,7.46
2023-03-17T23:01:15.135Z,7.40
2023-03-17T23:03:42.511Z,7.30
2023-03-17T23:06:09.988Z,7.21
2023-03-17T23:08:38.513Z,7.24
2023-03-17T23:11:08.575Z,7.26
2023-03-17T23:13:36.257Z,7.26
2023-03-17T23:16:04.697Z,7.27
2023-03-17T23:18:31.995Z,7.25
2023-03-17T23:20:59.676Z,7.35
2023-03-17T23:23:26.825Z,7.39
2023-03-17T23:25:53.882Z,7.43
2023-03-17T23:28:20.987Z,7.35
2023-03-17T23:30:47.773Z,7.36
2023-03-17T23:33:15.440Z,7.36
2023-03-17T23:35:42.176Z,7.33
2023-03-17T23:38:09.611Z,7.38
2023-03-17T23:40:36.243Z,7.38
2023-03-17T23:43:05.630Z,7.44
2023-03-17T23:45:34.397Z,7.39
2023-03-17T23:48:01.784Z,7.35
2023-03-17T23:50:28.594Z,7.34
2023-03-17T23:52:55.521Z,7.16
2023-03-17T23:55:23.188Z,7.14
2023-03-17T23:57:50.388Z,7.04
